createdAt,value
2023-02-11T00:02:01.484Z,0.41
2023-02-11T00:04:30.035Z,0.39
2023-02-11T00:06:58.359Z,0.38
2023-02-11T00:09:31.909Z,0.41
2023-02-11T00:12:00.298Z,0.47
2023-02-11T00:14:28.782Z,0.43
2023-02-11T00:16:57.815Z,0.38
2023-02-11T00:19:26.288Z,0.39
2023-02-11T00:21:54.847Z,0.36
2023-02-11T00:24:23.241Z,0.33
2023-02-11T00:26:51.611Z,0.31
2023-02-11T00:29:20.331Z,0.26
2023-02-11T00:31:48.799Z,0.22
2023-02-11T00:34:17.265Z,0.25
2023-02-11T00:36:45.670Z,0.33
2023-02-11T00:39:16.404Z,0.34
2023-02-11T00:41:45.073Z,0.32
2023-02-11T00:44:14.373Z,0.30
2023-02-11T00:46:42.856Z,0.28
2023-02-11T00:49:12.057Z,0.24
2023-02-11T00:51:41.360Z,0.20
2023-02-11T00:54:09.742Z,0.17
2023-02-11T00:56:38.738Z,0.20
2023-02-11T00:59:07.229Z,0.27
2023-02-11T01:01:35.865Z,0.27
2023-02-11T01:04:05.318Z,0.26
2023-02-11T01:06:33.700Z,0.24
2023-02-11T01:09:02.183Z,0.23
2023-02-11T01:11:34.566Z,0.22
2023-02-11T01:14:03.590Z,0.20
2023-02-11T01:16:32.150Z,0.17
2023-02-11T01:19:00.839Z,0.20
2023-02-11T01:21:29.833Z,0.27
2023-02-11T01:23:58.217Z,0.30
2023-02-11T01:26:26.699Z,0.30
2023-02-11T01:28:55.492Z,0.29
2023-02-11T01:31:23.930Z,0.27
2023-02-11T01:33:52.868Z,0.22
2023-02-11T01:36:22.784Z,0.22
2023-02-11T01:38:51.376Z,0.26
2023-02-11T01:41:22.107Z,0.28
2023-02-11T01:43:50.798Z,0.27
2023-02-11T01:46:33.246Z,0.24
2023-02-11T01:49:09.080Z,0.18
2023-02-11T01:52:02.331Z,0.10
2023-02-11T01:54:51.909Z,0.01
2023-02-11T01:57:22.289Z,0.10
2023-02-11T02:00:06.898Z,0.03
2023-02-11T02:02:55.354Z,-0.04
2023-02-11T02:05:40.629Z,-0.12
2023-02-11T02:08:17.617Z,-0.20
2023-02-11T02:10:48.014Z,-0.26
2023-02-11T02:13:18.891Z,-0.26
2023-02-11T02:16:00.193Z,-0.28
2023-02-11T02:18:35.097Z,-0.30
2023-02-11T02:21:22.133Z,-0.35
2023-02-11T02:24:08.929Z,-0.40
2023-02-11T02:26:46.534Z,-0.47
2023-02-11T02:29:30.077Z,-0.49
2023-02-11T02:32:26.605Z,-0.43
2023-02-11T02:35:20.900Z,-0.52
2023-02-11T02:37:58.084Z,-0.53
2023-02-11T02:40:37.525Z,-0.59
2023-02-11T02:43:06.077Z,-0.63
2023-02-11T02:45:34.499Z,-0.68
2023-02-11T02:48:03.206Z,-0.72
2023-02-11T02:50:36.484Z,-0.71
2023-02-11T02:53:27.804Z,-0.64
2023-02-11T02:56:01.406Z,-0.65
2023-02-11T02:58:48.477Z,-0.79
2023-02-11T03:01:39.334Z,-0.73
2023-02-11T03:04:19.696Z,-0.76
2023-02-11T03:06:48.285Z,-0.77
2023-02-11T03:09:24.431Z,-0.76
2023-02-11T03:11:53.035Z,-0.69
2023-02-11T03:14:21.518Z,-0.67
2023-02-11T03:16:50.719Z,-0.66
2023-02-11T03:19:27.586Z,-0.64
2023-02-11T03:21:56.392Z,-0.66
2023-02-11T03:24:33.681Z,-0.69
2023-02-11T03:27:07.797Z,-0.76
2023-02-11T03:29:39.762Z,-0.82
2023-02-11T03:32:16.489Z,-0.81
2023-02-11T03:34:58.545Z,-0.75
2023-02-11T03:37:51.797Z,-0.76
2023-02-11T03:40:29.200Z,-0.79
2023-02-11T03:43:03.830Z,-0.95
2023-02-11T03:45:32.996Z,-0.94
2023-02-11T03:48:04.690Z,-1.01
2023-02-11T03:50:33.377Z,-1.06
2023-02-11T03:53:02.378Z,-1.03
2023-02-11T03:55:30.754Z,-1.03
2023-02-11T03:57:59.344Z,-1.07
2023-02-11T04:00:39.944Z,-1.11
2023-02-11T04:03:08.958Z,-1.17
2023-02-11T04:05:37.696Z,-1.24
2023-02-11T04:08:06.082Z,-1.28
2023-02-11T04:10:35.381Z,-1.28
2023-02-11T04:13:04.277Z,-1.25
2023-02-11T04:15:33.276Z,-1.26
2023-02-11T04:18:03.501Z,-1.28
2023-02-11T04:20:31.773Z,-1.34
2023-02-11T04:23:00.258Z,-1.39
2023-02-11T04:25:29.458Z,-1.43
2023-02-11T04:27:57.996Z,-1.46
2023-02-11T04:30:26.327Z,-1.51
2023-02-11T04:32:54.791Z,-1.50
2023-02-11T04:35:23.398Z,-1.44
2023-02-11T04:37:51.781Z,-1.42
2023-02-11T04:40:20.265Z,-1.47
2023-02-11T04:42:48.658Z,-1.54
2023-02-11T04:45:17.436Z,-1.61
2023-02-11T04:47:45.818Z,-1.64
2023-02-11T04:50:14.626Z,-1.67
2023-02-11T04:52:43.214Z,-1.71
2023-02-11T04:55:11.891Z,-1.72
2023-02-11T04:57:40.677Z,-1.66
2023-02-11T05:00:10.301Z,-1.63
2023-02-11T05:02:38.977Z,-1.60
2023-02-11T05:05:07.811Z,-1.66
2023-02-11T05:07:36.354Z,-1.71
2023-02-11T05:10:05.048Z,-1.67
2023-02-11T05:12:34.055Z,-1.64
2023-02-11T05:15:02.544Z,-1.58
2023-02-11T05:17:31.523Z,-1.49
2023-02-11T05:19:59.901Z,-1.39
2023-02-11T05:22:28.588Z,-1.29
2023-02-11T05:24:57.072Z,-1.23
2023-02-11T05:27:25.454Z,-1.17
2023-02-11T05:29:53.941Z,-1.12
2023-02-11T05:32:22.326Z,-1.09
2023-02-11T05:34:50.702Z,-1.06
2023-02-11T05:37:20.807Z,-1.04
2023-02-11T05:39:49.929Z,-1.01
2023-02-11T05:42:18.820Z,-0.91
2023-02-11T05:44:49.049Z,-0.77
2023-02-11T05:47:21.416Z,-0.68
2023-02-11T05:49:50.309Z,-0.64
2023-02-11T05:52:18.691Z,-0.62
2023-02-11T05:54:47.284Z,-0.61
2023-02-11T05:57:16.074Z,-0.61
2023-02-11T05:59:44.456Z,-0.60
2023-02-11T06:02:14.005Z,-0.59
2023-02-11T06:04:44.408Z,-0.56
2023-02-11T06:07:15.228Z,-0.48
2023-02-11T06:09:43.711Z,-0.45
2023-02-11T06:12:12.606Z,-0.46
2023-02-11T06:14:42.730Z,-0.47
2023-02-11T06:17:12.401Z,-0.49
2023-02-11T06:19:44.829Z,-0.49
2023-02-11T06:22:13.197Z,-0.47
2023-02-11T06:24:54.978Z,-0.40
2023-02-11T06:27:30.032Z,-0.26
2023-02-11T06:29:58.460Z,-0.20
2023-02-11T06:32:45.725Z,-0.16
2023-02-11T06:35:14.983Z,-0.13
2023-02-11T06:37:45.373Z,-0.11
2023-02-11T06:40:14.494Z,-0.07
2023-02-11T06:42:43.977Z,0.01
2023-02-11T06:45:13.604Z,0.11
2023-02-11T06:47:42.796Z,0.16
2023-02-11T06:50:12.634Z,0.18
2023-02-11T06:52:41.599Z,0.21
2023-02-11T06:55:10.089Z,0.16
2023-02-11T06:57:39.086Z,0.22
2023-02-11T07:01:07.062Z,0.30
2023-02-11T07:03:36.567Z,0.31
2023-02-11T07:06:08.433Z,0.31
2023-02-11T07:08:37.318Z,0.31
2023-02-11T07:11:13.804Z,0.30
2023-02-11T07:13:42.384Z,0.33
2023-02-11T07:16:13.046Z,0.36
2023-02-11T07:18:42.223Z,0.37
2023-02-11T07:21:12.170Z,0.36
2023-02-11T07:23:41.439Z,0.38
2023-02-11T07:26:13.307Z,0.45
2023-02-11T07:28:42.001Z,0.52
2023-02-11T07:31:12.521Z,0.56
2023-02-11T07:33:41.010Z,0.59
2023-02-11T07:36:10.545Z,0.64
2023-02-11T07:38:38.995Z,0.66
2023-02-11T07:41:12.192Z,0.67
2023-02-11T07:43:41.186Z,0.73
2023-02-11T07:46:15.034Z,0.78
2023-02-11T07:48:43.576Z,0.80
2023-02-11T07:51:14.013Z,0.82
2023-02-11T07:53:42.694Z,0.84
2023-02-11T07:56:12.140Z,0.90
2023-02-11T07:58:42.533Z,1.01
2023-02-11T08:01:13.271Z,1.08
2023-02-11T08:03:43.103Z,1.10
2023-02-11T08:06:13.409Z,1.07
2023-02-11T08:08:42.226Z,0.98
2023-02-11T08:11:12.668Z,0.95
2023-02-11T08:13:41.521Z,1.01
2023-02-11T08:16:26.425Z,1.02
2023-02-11T08:18:57.559Z,1.02
2023-02-11T08:21:27.245Z,1.00
2023-02-11T08:23:56.241Z,1.03
2023-02-11T08:26:29.457Z,1.11
2023-02-11T08:28:58.233Z,1.15
2023-02-11T08:31:28.628Z,1.15
2023-02-11T08:33:58.467Z,1.16
2023-02-11T08:36:29.307Z,1.17
2023-02-11T08:39:18.161Z,1.23
2023-02-11T08:41:57.085Z,1.32
2023-02-11T08:44:25.462Z,1.33
2023-02-11T08:46:54.084Z,1.34
2023-02-11T08:49:22.489Z,1.35
2023-02-11T08:51:51.455Z,1.43
2023-02-11T08:54:21.031Z,1.50
2023-02-11T08:56:51.388Z,1.52
2023-02-11T08:59:19.942Z,1.52
2023-02-11T09:01:49.204Z,1.49
2023-02-11T09:04:17.627Z,1.49
2023-02-11T09:06:47.418Z,1.52
2023-02-11T09:09:16.236Z,1.52
2023-02-11T09:11:45.850Z,1.47
2023-02-11T09:14:18.621Z,1.39
2023-02-11T09:16:47.026Z,1.56
2023-02-11T09:19:17.845Z,1.64
2023-02-11T09:21:46.424Z,1.67
2023-02-11T09:24:15.109Z,1.64
2023-02-11T09:26:43.936Z,1.58
2023-02-11T09:29:12.500Z,1.61
2023-02-11T09:31:41.382Z,1.65
2023-02-11T09:34:11.215Z,1.65
2023-02-11T09:36:40.507Z,1.65
2023-02-11T09:39:12.455Z,1.61
2023-02-11T09:41:50.976Z,1.63
2023-02-11T09:44:24.253Z,1.64
2023-02-11T09:47:01.150Z,1.66
2023-02-11T09:50:00.454Z,1.68
2023-02-11T09:52:48.095Z,1.72
2023-02-11T09:55:30.293Z,1.76
2023-02-11T09:57:58.881Z,1.77
2023-02-11T10:00:38.315Z,1.78
2023-02-11T10:03:44.796Z,1.82
2023-02-11T10:06:16.144Z,1.88
2023-02-11T10:08:59.374Z,1.90
2023-02-11T10:11:32.647Z,1.91
2023-02-11T10:14:16.616Z,1.92
2023-02-11T10:17:13.263Z,1.91
2023-02-11T10:20:01.914Z,1.94
2023-02-11T10:22:37.053Z,1.94
2023-02-11T10:25:24.379Z,1.93
2023-02-11T10:27:55.723Z,1.91
2023-02-11T10:30:46.914Z,1.89
2023-02-11T10:33:18.396Z,1.97
2023-02-11T10:35:47.804Z,1.97
2023-02-11T10:38:16.283Z,1.97
2023-02-11T10:40:44.765Z,1.97
2023-02-11T10:43:16.556Z,2.01
2023-02-11T10:45:48.395Z,2.09
2023-02-11T10:48:43.829Z,2.13
2023-02-11T10:51:34.540Z,2.14
2023-02-11T10:54:08.430Z,2.13
2023-02-11T10:56:38.269Z,2.12
2023-02-11T10:59:31.001Z,2.13
2023-02-11T11:02:06.316Z,2.09
2023-02-11T11:04:37.062Z,2.02
2023-02-11T11:07:28.297Z,1.98
2023-02-11T11:09:59.439Z,1.99
2023-02-11T11:12:35.622Z,1.96
2023-02-11T11:15:10.833Z,1.94
2023-02-11T11:17:45.630Z,1.87
2023-02-11T11:20:14.585Z,1.89
2023-02-11T11:22:43.252Z,1.94
2023-02-11T11:25:28.406Z,1.97
2023-02-11T11:27:58.343Z,1.99
2023-02-11T11:30:33.564Z,1.99
2023-02-11T11:33:02.379Z,2.05
2023-02-11T11:35:33.319Z,2.11
2023-02-11T11:38:04.269Z,2.15
2023-02-11T11:40:36.222Z,2.15
2023-02-11T11:43:14.443Z,2.15
2023-02-11T11:45:59.000Z,2.19
2023-02-11T11:48:33.220Z,2.17
2023-02-11T11:51:02.642Z,2.13
2023-02-11T11:53:56.335Z,2.11
2023-02-11T11:56:26.956Z,2.13
2023-02-11T11:58:56.025Z,2.15
2023-02-11T12:01:41.355Z,2.17
2023-02-11T12:04:28.529Z,2.15
2023-02-11T12:07:16.779Z,2.12
2023-02-11T12:10:22.543Z,2.16
2023-02-11T12:13:17.852Z,2.18
2023-02-11T12:15:52.174Z,2.17
2023-02-11T12:18:58.543Z,2.14
2023-02-11T12:21:51.090Z,2.22
2023-02-11T12:24:42.512Z,2.33
2023-02-11T12:27:43.254Z,2.41
2023-02-11T12:30:11.841Z,2.43
2023-02-11T12:33:02.957Z,2.50
2023-02-11T12:35:38.739Z,2.59
2023-02-11T12:38:21.636Z,2.67
2023-02-11T12:41:14.798Z,2.68
2023-02-11T12:43:44.151Z,2.65
2023-02-11T12:46:35.329Z,2.58
2023-02-11T12:49:41.796Z,2.56
2023-02-11T12:52:29.220Z,2.56
2023-02-11T12:55:00.884Z,2.54
2023-02-11T12:57:32.345Z,2.56
2023-02-11T13:00:22.836Z,2.61
2023-02-11T13:03:01.885Z,2.70
2023-02-11T13:05:50.023Z,2.79
2023-02-11T13:08:23.926Z,2.84
2023-02-11T13:10:57.133Z,2.87
2023-02-11T13:13:34.007Z,3.07
2023-02-11T13:16:08.152Z,3.40
2023-02-11T13:18:48.584Z,3.55
2023-02-11T13:21:18.000Z,3.48
2023-02-11T13:23:48.315Z,3.30
2023-02-11T13:26:30.204Z,3.15
2023-02-11T13:29:23.274Z,3.11
2023-02-11T13:31:56.055Z,3.09
2023-02-11T13:34:44.135Z,3.07
2023-02-11T13:37:23.533Z,2.98
2023-02-11T13:40:01.568Z,2.75
2023-02-11T13:42:30.550Z,2.71
2023-02-11T13:44:58.943Z,2.58
2023-02-11T13:47:34.066Z,2.59
2023-02-11T13:50:04.379Z,2.57
2023-02-11T13:52:37.504Z,2.54
2023-02-11T13:55:14.984Z,2.53
2023-02-11T13:57:43.770Z,2.51
2023-02-11T14:00:34.476Z,2.48
2023-02-11T14:03:31.042Z,2.43
2023-02-11T14:06:27.711Z,2.43
2023-02-11T14:09:14.681Z,2.36
2023-02-11T14:11:51.970Z,2.28
2023-02-11T14:14:22.093Z,2.20
2023-02-11T14:16:59.971Z,2.12
2023-02-11T14:19:38.525Z,2.04
2023-02-11T14:22:13.750Z,2.00
2023-02-11T14:24:59.590Z,1.97
2023-02-11T14:27:41.961Z,1.90
2023-02-11T14:30:29.105Z,1.84
2023-02-11T14:33:19.889Z,1.79
2023-02-11T14:36:04.039Z,1.73
2023-02-11T14:38:59.046Z,1.73
2023-02-11T14:41:42.718Z,1.72
2023-02-11T14:44:15.266Z,1.67
2023-02-11T14:46:46.399Z,1.63
2023-02-11T14:49:33.120Z,1.56
2023-02-11T14:52:22.503Z,1.55
2023-02-11T14:54:51.190Z,1.53
2023-02-11T14:57:20.569Z,1.52
2023-02-11T14:59:59.240Z,1.49
2023-02-11T15:02:34.249Z,1.44
2023-02-11T15:05:29.249Z,1.38
2023-02-11T15:07:59.731Z,1.32
2023-02-11T15:10:32.257Z,1.25
2023-02-11T15:13:01.459Z,1.21
2023-02-11T15:15:30.866Z,1.23
2023-02-11T15:18:01.290Z,1.18
2023-02-11T15:20:32.045Z,1.25
2023-02-11T15:23:02.866Z,1.23
2023-02-11T15:25:34.044Z,1.19
2023-02-11T15:28:21.654Z,1.15
2023-02-11T15:31:00.745Z,1.14
2023-02-11T15:33:32.901Z,1.11
2023-02-11T15:36:02.048Z,1.07
2023-02-11T15:38:30.949Z,1.07
2023-02-11T15:41:03.216Z,1.05
2023-02-11T15:43:45.321Z,1.05
2023-02-11T15:46:23.606Z,1.09
2023-02-11T15:48:53.239Z,1.17
2023-02-11T15:51:22.869Z,1.19
2023-02-11T15:54:02.284Z,1.19
2023-02-11T15:56:44.504Z,1.19
2023-02-11T15:59:21.370Z,1.20
2023-02-11T16:01:49.875Z,1.20
2023-02-11T16:04:23.913Z,1.20
2023-02-11T16:06:53.406Z,1.21
2023-02-11T16:09:26.983Z,1.19
2023-02-11T16:11:59.031Z,1.19
2023-02-11T16:14:27.423Z,1.16
2023-02-11T16:17:22.632Z,1.20
2023-02-11T16:19:51.222Z,1.26
2023-02-11T16:22:30.265Z,1.26
2023-02-11T16:24:59.464Z,1.28
2023-02-11T16:27:37.662Z,1.25
2023-02-11T16:30:07.377Z,1.25
2023-02-11T16:32:35.756Z,1.22
2023-02-11T16:35:09.159Z,1.20
2023-02-11T16:37:38.248Z,1.20
2023-02-11T16:40:07.687Z,1.20
2023-02-11T16:42:36.241Z,1.21
2023-02-11T16:45:05.439Z,1.24
2023-02-11T16:47:34.682Z,1.27
2023-02-11T16:50:03.122Z,1.27
2023-02-11T16:52:32.012Z,1.27
2023-02-11T16:55:01.621Z,1.26
2023-02-11T16:57:30.496Z,1.20
2023-02-11T16:59:59.616Z,1.16
2023-02-11T17:02:35.091Z,1.17
2023-02-11T17:05:05.591Z,1.16
2023-02-11T17:07:35.608Z,1.20
2023-02-11T17:10:07.387Z,1.25
2023-02-11T17:12:36.059Z,1.26
2023-02-11T17:15:07.280Z,1.27
2023-02-11T17:17:37.527Z,1.25
2023-02-11T17:20:07.377Z,1.17
2023-02-11T17:22:35.721Z,1.24
2023-02-11T17:25:04.409Z,1.22
2023-02-11T17:27:33.142Z,1.22
2023-02-11T17:30:01.476Z,1.30
2023-02-11T17:32:29.915Z,1.33
2023-02-11T17:34:59.979Z,1.33
2023-02-11T17:37:28.972Z,1.18
2023-02-11T17:39:57.660Z,1.22
2023-02-11T17:42:27.066Z,1.24
2023-02-11T17:44:55.448Z,1.23
2023-02-11T17:47:24.885Z,1.21
2023-02-11T17:49:53.231Z,1.23
2023-02-11T17:52:24.495Z,1.29
2023-02-11T17:54:53.270Z,1.28
2023-02-11T17:57:21.855Z,1.27
2023-02-11T17:59:50.242Z,1.27
2023-02-11T18:02:18.927Z,1.25
2023-02-11T18:04:49.268Z,1.23
2023-02-11T18:07:18.963Z,1.22
2023-02-11T18:09:49.392Z,1.24
2023-02-11T18:12:25.453Z,1.28
2023-02-11T18:14:57.535Z,1.30
2023-02-11T18:17:27.044Z,1.28
2023-02-11T18:19:57.071Z,1.28
2023-02-11T18:22:25.528Z,1.25
2023-02-11T18:24:54.727Z,1.24
2023-02-11T18:27:23.730Z,1.28
2023-02-11T18:29:52.447Z,1.26
2023-02-11T18:32:21.204Z,1.24
2023-02-11T18:34:49.790Z,1.26
2023-02-11T18:37:20.632Z,1.29
2023-02-11T18:39:49.130Z,1.29
2023-02-11T18:42:17.494Z,1.28
2023-02-11T18:44:46.214Z,1.32
2023-02-11T18:47:14.461Z,1.37
2023-02-11T18:49:42.849Z,1.39
2023-02-11T18:52:11.429Z,1.35
2023-02-11T18:54:41.039Z,1.28
2023-02-11T18:57:09.623Z,1.28
2023-02-11T18:59:39.438Z,1.31
2023-02-11T19:02:09.642Z,1.21
2023-02-11T19:04:38.628Z,1.15
2023-02-11T19:07:07.042Z,1.13
2023-02-11T19:09:35.730Z,1.17
2023-02-11T19:12:04.940Z,1.22
2023-02-11T19:14:34.422Z,1.22
2023-02-11T19:18:47.774Z,1.22
2023-02-11T19:21:16.159Z,1.18
2023-02-11T19:23:44.537Z,1.24
2023-02-11T19:26:13.120Z,1.28
2023-02-11T19:28:41.707Z,1.28
2023-02-11T19:31:10.358Z,1.26
2023-02-11T19:33:40.002Z,1.24
2023-02-11T19:36:09.716Z,1.26
2023-02-11T19:38:38.403Z,1.28
2023-02-11T19:41:06.786Z,1.27
2023-02-11T19:43:35.165Z,1.24
2023-02-11T19:46:04.349Z,1.22
2023-02-11T19:48:32.745Z,1.25
2023-02-11T19:51:12.043Z,1.25
2023-02-11T19:53:42.410Z,1.22
2023-02-11T19:56:11.099Z,1.18
2023-02-11T19:58:40.092Z,1.11
2023-02-11T20:01:19.698Z,1.22
2023-02-11T20:03:51.952Z,1.19
2023-02-11T20:06:23.666Z,1.12
2023-02-11T20:08:59.029Z,1.11
2023-02-11T20:11:29.001Z,1.12
2023-02-11T20:13:57.613Z,1.11
2023-02-11T20:16:44.640Z,1.01
2023-02-11T20:19:18.377Z,0.91
2023-02-11T20:21:48.184Z,0.94
2023-02-11T20:24:17.665Z,0.97
2023-02-11T20:26:48.602Z,0.96
2023-02-11T20:29:18.076Z,0.92
2023-02-11T20:31:46.684Z,0.92
2023-02-11T20:34:17.994Z,0.96
2023-02-11T20:36:52.237Z,0.95
2023-02-11T20:39:22.574Z,0.90
2023-02-11T20:41:51.595Z,0.89
2023-02-11T20:44:22.554Z,0.94
2023-02-11T20:46:52.032Z,0.94
2023-02-11T20:49:22.696Z,0.89
2023-02-11T20:51:52.787Z,0.85
2023-02-11T20:54:21.475Z,0.88
2023-02-11T20:56:51.391Z,0.87
2023-02-11T20:59:20.182Z,0.83
2023-02-11T21:01:56.465Z,0.78
2023-02-11T21:04:28.013Z,0.78
2023-02-11T21:06:58.748Z,0.84
2023-02-11T21:09:29.614Z,0.88
2023-02-11T21:12:03.495Z,0.89
2023-02-11T21:14:34.335Z,0.90
2023-02-11T21:17:02.811Z,0.96
2023-02-11T21:19:31.829Z,0.98
2023-02-11T21:22:02.031Z,0.97
2023-02-11T21:24:33.180Z,0.95
2023-02-11T21:27:07.814Z,0.93
2023-02-11T21:29:52.676Z,0.94
2023-02-11T21:32:22.059Z,0.96
2023-02-11T21:34:50.466Z,0.93
2023-02-11T21:37:18.770Z,0.98
2023-02-11T21:39:47.634Z,1.06
2023-02-11T21:42:16.220Z,1.07
2023-02-11T21:44:44.702Z,1.06
2023-02-11T21:47:13.598Z,1.08
2023-02-11T21:49:43.001Z,1.14
2023-02-11T21:52:12.717Z,1.15
2023-02-11T21:54:40.993Z,1.13
2023-02-11T21:57:09.476Z,1.10
2023-02-11T21:59:37.892Z,1.13
2023-02-11T22:02:06.644Z,1.18
2023-02-11T22:04:35.048Z,1.18
2023-02-11T22:07:03.614Z,1.18
2023-02-11T22:09:34.349Z,1.19
2023-02-11T22:12:02.626Z,1.24
2023-02-11T22:14:32.384Z,1.26
2023-02-11T22:17:01.488Z,1.25
2023-02-11T22:19:30.123Z,1.20
2023-02-11T22:21:59.017Z,1.23
2023-02-11T22:24:27.601Z,1.26
2023-02-11T22:26:56.804Z,1.28
2023-02-11T22:29:25.281Z,1.26
2023-02-11T22:31:53.722Z,1.24
2023-02-11T22:34:22.352Z,1.31
2023-02-11T22:36:52.471Z,1.30
2023-02-11T22:39:21.159Z,1.39
2023-02-11T22:41:49.640Z,1.37
2023-02-11T22:44:18.018Z,1.39
2023-02-11T22:46:46.503Z,1.41
2023-02-11T22:49:16.138Z,1.42
2023-02-11T22:51:44.499Z,1.41
2023-02-11T22:54:15.354Z,1.39
2023-02-11T22:56:43.812Z,1.43
2023-02-11T22:59:14.647Z,1.48
2023-02-11T23:01:43.467Z,1.48
2023-02-11T23:04:13.502Z,1.45
2023-02-11T23:06:41.846Z,1.46
2023-02-11T23:09:14.317Z,1.53
2023-02-11T23:11:43.007Z,1.54
2023-02-11T23:14:12.443Z,1.51
2023-02-11T23:16:42.329Z,1.51
2023-02-11T23:19:11.120Z,1.56
2023-02-11T23:21:39.713Z,1.58
2023-02-11T23:24:14.869Z,1.56
2023-02-11T23:26:43.641Z,1.52
2023-02-11T23:29:12.530Z,1.53
2023-02-11T23:31:44.123Z,1.60
2023-02-11T23:34:17.198Z,1.62
2023-02-11T23:36:45.567Z,1.60
2023-02-11T23:39:15.587Z,1.60
2023-02-11T23:41:45.228Z,1.63
2023-02-11T23:44:13.590Z,1.68
2023-02-11T23:46:42.469Z,1.68
2023-02-11T23:49:11.160Z,1.67
2023-02-11T23:51:39.641Z,1.70
2023-02-11T23:54:08.121Z,1.76
2023-02-11T23:56:39.371Z,1.78
2023-02-11T23:59:08.055Z,1.78
